sensor_id;sensor_type;location;lat;lon;timestamp;P1;durP1;ratioP1;P2;durP2;ratioP2
69979;SDS011;57318;56.232;43.944;2023-02-28T00:00:17;12.82;;;5.35;;
69979;SDS011;57318;56.232;43.944;2023-02-28T00:02:43;11.13;;;4.93;;
69979;SDS011;57318;56.232;43.944;2023-02-28T00:05:09;13.77;;;6.35;;
69979;SDS011;57318;56.232;43.944;2023-02-28T00:07:37;12.57;;;5.68;;
69979;SDS011;57318;56.232;43.944;2023-02-28T00:10:04;12.73;;;5.78;;
69979;SDS011;57318;56.232;43.944;2023-02-28T00:12:32;13.48;;;5.38;;
69979;SDS011;57318;56.232;43.944;2023-02-28T00:14:58;15.02;;;4.93;;
69979;SDS011;57318;56.232;43.944;2023-02-28T00:17:24;11.20;;;5.67;;
69979;SDS011;57318;56.232;43.944;2023-02-28T00:19:50;13.73;;;5.47;;
69979;SDS011;57318;56.232;43.944;2023-02-28T00:24:42;13.13;;;5.55;;
69979;SDS011;57318;56.232;43.944;2023-02-28T00:27:08;13.50;;;6.57;;
69979;SDS011;57318;56.232;43.944;2023-02-28T00:29:34;9.57;;;4.78;;
69979;SDS011;57318;56.232;43.944;2023-02-28T00:31:59;12.83;;;5.60;;
69979;SDS011;57318;56.232;43.944;2023-02-28T00:34:25;9.97;;;5.40;;
69979;SDS011;57318;56.232;43.944;2023-02-28T00:36:50;13.50;;;6.13;;
69979;SDS011;57318;56.232;43.944;2023-02-28T00:39:16;12.63;;;5.37;;
69979;SDS011;57318;56.232;43.944;2023-02-28T00:41:42;12.00;;;5.70;;
69979;SDS011;57318;56.232;43.944;2023-02-28T00:44:07;13.30;;;6.10;;
69979;SDS011;57318;56.232;43.944;2023-02-28T00:46:33;14.73;;;5.93;;
69979;SDS011;57318;56.232;43.944;2023-02-28T00:48:59;12.77;;;5.60;;
69979;SDS011;57318;56.232;43.944;2023-02-28T00:51:24;12.63;;;4.93;;
69979;SDS011;57318;56.232;43.944;2023-02-28T00:53:50;12.47;;;5.13;;
69979;SDS011;57318;56.232;43.944;2023-02-28T00:56:15;14.63;;;7.23;;
69979;SDS011;57318;56.232;43.944;2023-02-28T00:58:41;10.00;;;5.57;;
69979;SDS011;57318;56.232;43.944;2023-02-28T01:01:07;14.40;;;4.72;;
69979;SDS011;57318;56.232;43.944;2023-02-28T01:03:32;12.48;;;5.30;;
69979;SDS011;57318;56.232;43.944;2023-02-28T01:05:58;14.47;;;5.10;;
69979;SDS011;57318;56.232;43.944;2023-02-28T01:08:24;11.93;;;5.53;;
69979;SDS011;57318;56.232;43.944;2023-02-28T01:10:51;13.27;;;5.60;;
69979;SDS011;57318;56.232;43.944;2023-02-28T01:13:17;8.45;;;4.35;;
69979;SDS011;57318;56.232;43.944;2023-02-28T01:15:46;10.23;;;4.70;;
69979;SDS011;57318;56.232;43.944;2023-02-28T01:18:15;5.82;;;3.63;;
69979;SDS011;57318;56.232;43.944;2023-02-28T01:20:41;8.30;;;4.00;;
69979;SDS011;57318;56.232;43.944;2023-02-28T01:23:07;10.60;;;4.13;;
69979;SDS011;57318;56.232;43.944;2023-02-28T01:25:35;10.82;;;5.95;;
69979;SDS011;57318;56.232;43.944;2023-02-28T01:28:01;8.45;;;3.83;;
69979;SDS011;57318;56.232;43.944;2023-02-28T01:30:27;9.80;;;4.07;;
69979;SDS011;57318;56.232;43.944;2023-02-28T01:32:53;10.05;;;4.78;;
69979;SDS011;57318;56.232;43.944;2023-02-28T01:35:18;9.00;;;4.17;;
69979;SDS011;57318;56.232;43.944;2023-02-28T01:37:44;10.20;;;4.68;;
69979;SDS011;57318;56.232;43.944;2023-02-28T01:40:11;9.10;;;4.13;;
69979;SDS011;57318;56.232;43.944;2023-02-28T01:42:38;8.88;;;4.05;;
69979;SDS011;57318;56.232;43.944;2023-02-28T01:45:16;11.38;;;3.58;;
69979;SDS011;57318;56.232;43.944;2023-02-28T01:47:47;10.02;;;4.10;;
69979;SDS011;57318;56.232;43.944;2023-02-28T01:50:20;12.27;;;3.80;;
69979;SDS011;57318;56.232;43.944;2023-02-28T01:52:48;7.40;;;3.92;;
69979;SDS011;57318;56.232;43.944;2023-02-28T01:57:43;8.73;;;4.35;;
69979;SDS011;57318;56.232;43.944;2023-02-28T02:00:15;11.65;;;4.45;;
69979;SDS011;57318;56.232;43.944;2023-02-28T02:02:43;8.63;;;4.32;;
69979;SDS011;57318;56.232;43.944;2023-02-28T02:05:16;9.00;;;3.95;;
69979;SDS011;57318;56.232;43.944;2023-02-28T02:07:44;9.32;;;4.03;;
69979;SDS011;57318;56.232;43.944;2023-02-28T02:10:14;7.05;;;3.72;;
69979;SDS011;57318;56.232;43.944;2023-02-28T02:18:24;10.27;;;3.80;;
69979;SDS011;57318;56.232;43.944;2023-02-28T02:32:41;9.13;;;3.90;;
69979;SDS011;57318;56.232;43.944;2023-02-28T02:41:22;9.10;;;3.80;;
69979;SDS011;57318;56.232;43.944;2023-02-28T02:44:04;9.90;;;3.72;;
69979;SDS011;57318;56.232;43.944;2023-02-28T02:46:38;6.90;;;2.90;;
69979;SDS011;57318;56.232;43.944;2023-02-28T02:49:08;7.15;;;3.85;;
69979;SDS011;57318;56.232;43.944;2023-02-28T02:51:40;7.50;;;3.28;;
69979;SDS011;57318;56.232;43.944;2023-02-28T02:54:15;11.45;;;4.25;;
69979;SDS011;57318;56.232;43.944;2023-02-28T02:56:45;7.60;;;3.23;;
69979;SDS011;57318;56.232;43.944;2023-02-28T02:59:14;10.25;;;4.85;;
69979;SDS011;57318;56.232;43.944;2023-02-28T03:01:48;11.27;;;4.40;;
69979;SDS011;57318;56.232;43.944;2023-02-28T03:04:18;7.90;;;4.53;;
69979;SDS011;57318;56.232;43.944;2023-02-28T03:06:46;8.50;;;3.80;;
69979;SDS011;57318;56.232;43.944;2023-02-28T03:09:12;9.75;;;4.68;;
69979;SDS011;57318;56.232;43.944;2023-02-28T03:11:37;9.38;;;4.60;;
69979;SDS011;57318;56.232;43.944;2023-02-28T03:14:10;7.67;;;3.80;;
69979;SDS011;57318;56.232;43.944;2023-02-28T03:26:05;9.30;;;4.80;;
69979;SDS011;57318;56.232;43.944;2023-02-28T03:28:09;7.33;;;4.30;;
69979;SDS011;57318;56.232;43.944;2023-02-28T03:33:30;7.40;;;4.30;;
69979;SDS011;57318;56.232;43.944;2023-02-28T03:36:27;11.47;;;4.43;;
69979;SDS011;57318;56.232;43.944;2023-02-28T03:38:58;10.13;;;4.93;;
69979;SDS011;57318;56.232;43.944;2023-02-28T03:41:40;10.23;;;4.87;;
69979;SDS011;57318;56.232;43.944;2023-02-28T03:44:29;7.97;;;4.20;;
69979;SDS011;57318;56.232;43.944;2023-02-28T03:49:49;6.97;;;3.77;;
69979;SDS011;57318;56.232;43.944;2023-02-28T03:52:19;9.27;;;4.47;;
69979;SDS011;57318;56.232;43.944;2023-02-28T03:54:51;8.37;;;3.47;;
69979;SDS011;57318;56.232;43.944;2023-02-28T03:57:27;8.47;;;4.57;;
69979;SDS011;57318;56.232;43.944;2023-02-28T04:02:34;11.00;;;4.97;;
69979;SDS011;57318;56.232;43.944;2023-02-28T04:05:00;9.25;;;4.43;;
69979;SDS011;57318;56.232;43.944;2023-02-28T04:07:28;7.55;;;4.13;;
69979;SDS011;57318;56.232;43.944;2023-02-28T04:09:55;7.53;;;4.10;;
69979;SDS011;57318;56.232;43.944;2023-02-28T04:12:21;9.35;;;3.67;;
69979;SDS011;57318;56.232;43.944;2023-02-28T04:17:14;9.67;;;4.67;;
69979;SDS011;57318;56.232;43.944;2023-02-28T04:19:40;7.55;;;4.40;;
69979;SDS011;57318;56.232;43.944;2023-02-28T04:22:06;8.02;;;3.85;;
69979;SDS011;57318;56.232;43.944;2023-02-28T04:24:33;8.97;;;4.20;;
69979;SDS011;57318;56.232;43.944;2023-02-28T04:26:59;8.32;;;4.00;;
69979;SDS011;57318;56.232;43.944;2023-02-28T04:29:29;10.32;;;4.63;;
69979;SDS011;57318;56.232;43.944;2023-02-28T04:31:57;8.50;;;4.30;;
69979;SDS011;57318;56.232;43.944;2023-02-28T04:34:24;8.87;;;4.00;;
69979;SDS011;57318;56.232;43.944;2023-02-28T04:36:51;7.60;;;3.77;;
69979;SDS011;57318;56.232;43.944;2023-02-28T04:39:20;7.23;;;4.03;;
69979;SDS011;57318;56.232;43.944;2023-02-28T04:41:49;7.80;;;4.00;;
69979;SDS011;57318;56.232;43.944;2023-02-28T04:46:41;6.50;;;3.63;;
69979;SDS011;57318;56.232;43.944;2023-02-28T04:49:08;6.30;;;3.43;;
69979;SDS011;57318;56.232;43.944;2023-02-28T04:51:35;6.57;;;3.67;;
69979;SDS011;57318;56.232;43.944;2023-02-28T04:54:01;7.87;;;4.10;;
69979;SDS011;57318;56.232;43.944;2023-02-28T04:56:27;8.07;;;3.83;;
69979;SDS011;57318;56.232;43.944;2023-02-28T04:58:52;6.80;;;2.92;;
69979;SDS011;57318;56.232;43.944;2023-02-28T05:01:20;5.25;;;2.78;;
69979;SDS011;57318;56.232;43.944;2023-02-28T05:03:48;7.93;;;3.17;;
69979;SDS011;57318;56.232;43.944;2023-02-28T05:08:40;7.78;;;3.28;;
69979;SDS011;57318;56.232;43.944;2023-02-28T05:11:07;6.57;;;2.72;;
69979;SDS011;57318;56.232;43.944;2023-02-28T05:13:46;7.22;;;3.30;;
69979;SDS011;57318;56.232;43.944;2023-02-28T05:16:12;6.53;;;3.15;;
69979;SDS011;57318;56.232;43.944;2023-02-28T05:18:39;6.82;;;3.22;;
69979;SDS011;57318;56.232;43.944;2023-02-28T05:21:05;4.88;;;2.83;;
69979;SDS011;57318;56.232;43.944;2023-02-28T05:23:30;6.85;;;3.15;;
69979;SDS011;57318;56.232;43.944;2023-02-28T05:25:57;4.50;;;3.00;;
69979;SDS011;57318;56.232;43.944;2023-02-28T05:28:23;5.03;;;3.20;;
69979;SDS011;57318;56.232;43.944;2023-02-28T05:30:48;7.43;;;3.33;;
69979;SDS011;57318;56.232;43.944;2023-02-28T05:33:14;6.20;;;3.50;;
69979;SDS011;57318;56.232;43.944;2023-02-28T05:35:40;4.90;;;3.20;;
69979;SDS011;57318;56.232;43.944;2023-02-28T05:38:08;6.60;;;3.40;;
69979;SDS011;57318;56.232;43.944;2023-02-28T05:40:34;5.85;;;3.53;;
69979;SDS011;57318;56.232;43.944;2023-02-28T05:43:00;5.35;;;3.63;;
69979;SDS011;57318;56.232;43.944;2023-02-28T05:45:26;5.13;;;3.08;;
69979;SDS011;57318;56.232;43.944;2023-02-28T05:47:54;6.93;;;3.57;;
69979;SDS011;57318;56.232;43.944;2023-02-28T05:50:20;7.82;;;2.92;;
69979;SDS011;57318;56.232;43.944;2023-02-28T05:52:50;5.63;;;3.67;;
69979;SDS011;57318;56.232;43.944;2023-02-28T05:55:17;11.50;;;3.58;;
69979;SDS011;57318;56.232;43.944;2023-02-28T05:57:43;6.40;;;3.83;;
69979;SDS011;57318;56.232;43.944;2023-02-28T06:00:09;5.55;;;3.17;;
69979;SDS011;57318;56.232;43.944;2023-02-28T06:02:35;6.50;;;3.03;;
69979;SDS011;57318;56.232;43.944;2023-02-28T06:05:01;5.93;;;3.47;;
69979;SDS011;57318;56.232;43.944;2023-02-28T06:07:28;6.38;;;3.30;;
69979;SDS011;57318;56.232;43.944;2023-02-28T06:09:53;7.07;;;3.90;;
69979;SDS011;57318;56.232;43.944;2023-02-28T06:12:19;5.20;;;2.77;;
69979;SDS011;57318;56.232;43.944;2023-02-28T06:14:45;7.87;;;3.70;;
69979;SDS011;57318;56.232;43.944;2023-02-28T06:17:10;6.40;;;3.80;;
69979;SDS011;57318;56.232;43.944;2023-02-28T06:19:37;7.10;;;3.63;;
69979;SDS011;57318;56.232;43.944;2023-02-28T06:22:06;7.60;;;3.38;;
69979;SDS011;57318;56.232;43.944;2023-02-28T06:24:32;6.47;;;3.35;;
69979;SDS011;57318;56.232;43.944;2023-02-28T06:26:57;7.30;;;4.60;;
69979;SDS011;57318;56.232;43.944;2023-02-28T06:29:30;9.32;;;3.80;;
69979;SDS011;57318;56.232;43.944;2023-02-28T06:31:57;8.27;;;4.47;;
69979;SDS011;57318;56.232;43.944;2023-02-28T06:34:22;9.33;;;3.67;;
69979;SDS011;57318;56.232;43.944;2023-02-28T06:36:49;7.17;;;3.97;;
69979;SDS011;57318;56.232;43.944;2023-02-28T06:39:16;6.75;;;3.88;;
69979;SDS011;57318;56.232;43.944;2023-02-28T06:41:42;7.22;;;4.03;;
69979;SDS011;57318;56.232;43.944;2023-02-28T06:44:14;6.28;;;3.97;;
69979;SDS011;57318;56.232;43.944;2023-02-28T06:46:42;8.02;;;3.65;;
69979;SDS011;57318;56.232;43.944;2023-02-28T06:49:09;6.30;;;3.95;;
69979;SDS011;57318;56.232;43.944;2023-02-28T06:51:35;6.72;;;4.15;;
69979;SDS011;57318;56.232;43.944;2023-02-28T06:54:02;7.45;;;4.35;;
69979;SDS011;57318;56.232;43.944;2023-02-28T06:56:29;7.13;;;3.90;;
69979;SDS011;57318;56.232;43.944;2023-02-28T06:58:54;7.10;;;4.03;;
69979;SDS011;57318;56.232;43.944;2023-02-28T07:01:21;7.97;;;4.55;;
69979;SDS011;57318;56.232;43.944;2023-02-28T07:03:50;6.32;;;3.95;;
69979;SDS011;57318;56.232;43.944;2023-02-28T07:06:23;5.80;;;3.70;;
69979;SDS011;57318;56.232;43.944;2023-02-28T07:08:50;7.18;;;4.25;;
69979;SDS011;57318;56.232;43.944;2023-02-28T07:11:17;6.68;;;3.72;;
69979;SDS011;57318;56.232;43.944;2023-02-28T07:13:44;5.53;;;3.67;;
69979;SDS011;57318;56.232;43.944;2023-02-28T07:16:10;11.20;;;4.03;;
69979;SDS011;57318;56.232;43.944;2023-02-28T07:21:02;6.03;;;3.92;;
69979;SDS011;57318;56.232;43.944;2023-02-28T07:23:29;6.10;;;3.70;;
69979;SDS011;57318;56.232;43.944;2023-02-28T07:25:54;7.17;;;3.83;;
69979;SDS011;57318;56.232;43.944;2023-02-28T07:28:20;5.30;;;3.43;;
69979;SDS011;57318;56.232;43.944;2023-02-28T07:30:46;7.13;;;3.90;;
69979;SDS011;57318;56.232;43.944;2023-02-28T07:33:11;5.77;;;3.70;;
69979;SDS011;57318;56.232;43.944;2023-02-28T07:35:37;7.00;;;3.70;;
69979;SDS011;57318;56.232;43.944;2023-02-28T07:38:03;5.60;;;3.50;;
69979;SDS011;57318;56.232;43.944;2023-02-28T07:40:29;6.78;;;3.58;;
69979;SDS011;57318;56.232;43.944;2023-02-28T07:42:54;5.63;;;3.37;;
69979;SDS011;57318;56.232;43.944;2023-02-28T07:45:20;5.07;;;3.50;;
69979;SDS011;57318;56.232;43.944;2023-02-28T07:47:46;5.57;;;3.03;;
69979;SDS011;57318;56.232;43.944;2023-02-28T07:50:12;5.60;;;3.53;;
69979;SDS011;57318;56.232;43.944;2023-02-28T07:52:40;5.60;;;3.50;;
69979;SDS011;57318;56.232;43.944;2023-02-28T07:55:07;5.65;;;3.22;;
69979;SDS011;57318;56.232;43.944;2023-02-28T07:57:34;5.20;;;3.28;;
69979;SDS011;57318;56.232;43.944;2023-02-28T08:00:00;7.10;;;3.97;;
69979;SDS011;57318;56.232;43.944;2023-02-28T08:02:25;5.07;;;3.20;;
69979;SDS011;57318;56.232;43.944;2023-02-28T08:04:51;7.17;;;4.30;;
69979;SDS011;57318;56.232;43.944;2023-02-28T08:07:17;5.70;;;3.53;;
69979;SDS011;57318;56.232;43.944;2023-02-28T08:09:43;6.22;;;3.65;;
69979;SDS011;57318;56.232;43.944;2023-02-28T08:12:09;7.35;;;3.33;;
69979;SDS011;57318;56.232;43.944;2023-02-28T08:14:36;6.72;;;3.85;;
69979;SDS011;57318;56.232;43.944;2023-02-28T08:17:02;5.60;;;3.28;;
69979;SDS011;57318;56.232;43.944;2023-02-28T08:21:55;5.97;;;3.50;;
69979;SDS011;57318;56.232;43.944;2023-02-28T08:24:21;7.13;;;3.60;;
69979;SDS011;57318;56.232;43.944;2023-02-28T08:26:47;5.68;;;3.60;;
69979;SDS011;57318;56.232;43.944;2023-02-28T08:29:12;5.83;;;3.77;;
69979;SDS011;57318;56.232;43.944;2023-02-28T08:31:38;5.63;;;3.23;;
69979;SDS011;57318;56.232;43.944;2023-02-28T08:34:11;5.30;;;3.80;;
69979;SDS011;57318;56.232;43.944;2023-02-28T08:36:38;6.60;;;3.75;;
69979;SDS011;57318;56.232;43.944;2023-02-28T08:39:04;6.95;;;3.90;;
69979;SDS011;57318;56.232;43.944;2023-02-28T08:41:30;7.80;;;4.20;;
69979;SDS011;57318;56.232;43.944;2023-02-28T08:43:56;7.00;;;3.80;;
69979;SDS011;57318;56.232;43.944;2023-02-28T08:46:23;6.17;;;3.37;;
69979;SDS011;57318;56.232;43.944;2023-02-28T08:48:53;8.55;;;3.80;;
69979;SDS011;57318;56.232;43.944;2023-02-28T08:51:20;7.03;;;3.88;;
69979;SDS011;57318;56.232;43.944;2023-02-28T08:53:52;5.07;;;3.40;;
69979;SDS011;57318;56.232;43.944;2023-02-28T08:56:20;6.88;;;3.05;;
69979;SDS011;57318;56.232;43.944;2023-02-28T08:58:47;5.20;;;3.20;;
69979;SDS011;57318;56.232;43.944;2023-02-28T09:01:18;7.53;;;3.70;;
69979;SDS011;57318;56.232;43.944;2023-02-28T09:03:46;5.43;;;3.10;;
69979;SDS011;57318;56.232;43.944;2023-02-28T09:06:13;4.93;;;2.90;;
69979;SDS011;57318;56.232;43.944;2023-02-28T09:08:40;6.07;;;3.50;;
69979;SDS011;57318;56.232;43.944;2023-02-28T09:11:06;5.60;;;3.45;;
69979;SDS011;57318;56.232;43.944;2023-02-28T09:13:33;6.25;;;3.58;;
69979;SDS011;57318;56.232;43.944;2023-02-28T09:18:26;5.30;;;2.90;;
69979;SDS011;57318;56.232;43.944;2023-02-28T09:20:51;5.57;;;3.20;;
69979;SDS011;57318;56.232;43.944;2023-02-28T09:23:18;6.03;;;3.17;;
69979;SDS011;57318;56.232;43.944;2023-02-28T09:25:45;5.35;;;3.15;;
69979;SDS011;57318;56.232;43.944;2023-02-28T09:28:15;7.10;;;3.42;;
69979;SDS011;57318;56.232;43.944;2023-02-28T09:30:46;5.57;;;3.05;;
69979;SDS011;57318;56.232;43.944;2023-02-28T09:33:15;4.70;;;2.70;;
69979;SDS011;57318;56.232;43.944;2023-02-28T09:35:42;5.53;;;3.50;;
69979;SDS011;57318;56.232;43.944;2023-02-28T09:38:08;5.82;;;3.17;;
69979;SDS011;57318;56.232;43.944;2023-02-28T09:40:57;5.85;;;3.40;;
69979;SDS011;57318;56.232;43.944;2023-02-28T09:43:24;5.85;;;3.78;;
69979;SDS011;57318;56.232;43.944;2023-02-28T09:45:56;9.93;;;3.72;;
69979;SDS011;57318;56.232;43.944;2023-02-28T09:48:28;6.25;;;3.30;;
69979;SDS011;57318;56.232;43.944;2023-02-28T09:51:04;7.93;;;4.00;;
69979;SDS011;57318;56.232;43.944;2023-02-28T09:53:38;6.93;;;3.60;;
69979;SDS011;57318;56.232;43.944;2023-02-28T09:56:09;6.97;;;3.25;;
69979;SDS011;57318;56.232;43.944;2023-02-28T09:58:51;6.20;;;3.00;;
69979;SDS011;57318;56.232;43.944;2023-02-28T10:01:23;7.85;;;3.67;;
69979;SDS011;57318;56.232;43.944;2023-02-28T10:04:33;5.72;;;3.30;;
69979;SDS011;57318;56.232;43.944;2023-02-28T10:06:50;5.28;;;3.40;;
69979;SDS011;57318;56.232;43.944;2023-02-28T10:09:19;6.70;;;3.58;;
69979;SDS011;57318;56.232;43.944;2023-02-28T10:11:52;5.93;;;3.35;;
69979;SDS011;57318;56.232;43.944;2023-02-28T10:14:23;6.95;;;3.50;;
69979;SDS011;57318;56.232;43.944;2023-02-28T10:16:53;6.25;;;3.17;;
69979;SDS011;57318;56.232;43.944;2023-02-28T10:20:06;9.43;;;3.40;;
69979;SDS011;57318;56.232;43.944;2023-02-28T10:22:16;6.32;;;3.13;;
69979;SDS011;57318;56.232;43.944;2023-02-28T10:27:52;6.43;;;3.30;;
69979;SDS011;57318;56.232;43.944;2023-02-28T10:30:19;7.88;;;3.13;;
69979;SDS011;57318;56.232;43.944;2023-02-28T10:32:47;7.47;;;4.00;;
69979;SDS011;57318;56.232;43.944;2023-02-28T10:35:20;6.32;;;3.72;;
69979;SDS011;57318;56.232;43.944;2023-02-28T10:37:56;6.40;;;3.38;;
69979;SDS011;57318;56.232;43.944;2023-02-28T10:42:56;9.33;;;4.20;;
69979;SDS011;57318;56.232;43.944;2023-02-28T10:45:22;9.68;;;3.95;;
69979;SDS011;57318;56.232;43.944;2023-02-28T11:03:58;8.48;;;4.50;;
69979;SDS011;57318;56.232;43.944;2023-02-28T11:06:42;8.52;;;3.47;;
69979;SDS011;57318;56.232;43.944;2023-02-28T11:09:25;6.18;;;3.90;;
69979;SDS011;57318;56.232;43.944;2023-02-28T11:11:54;8.02;;;3.63;;
69979;SDS011;57318;56.232;43.944;2023-02-28T11:14:21;7.85;;;3.40;;
69979;SDS011;57318;56.232;43.944;2023-02-28T11:16:50;6.68;;;3.92;;
69979;SDS011;57318;56.232;43.944;2023-02-28T11:19:27;6.13;;;3.38;;
69979;SDS011;57318;56.232;43.944;2023-02-28T11:22:00;9.63;;;3.80;;
69979;SDS011;57318;56.232;43.944;2023-02-28T11:24:35;9.52;;;4.28;;
69979;SDS011;57318;56.232;43.944;2023-02-28T11:27:06;8.30;;;4.45;;
69979;SDS011;57318;56.232;43.944;2023-02-28T11:29:39;8.02;;;3.75;;
69979;SDS011;57318;56.232;43.944;2023-02-28T11:32:20;7.57;;;4.03;;
69979;SDS011;57318;56.232;43.944;2023-02-28T11:35:01;9.40;;;4.47;;
69979;SDS011;57318;56.232;43.944;2023-02-28T11:37:36;11.43;;;3.67;;
69979;SDS011;57318;56.232;43.944;2023-02-28T11:42:41;10.18;;;4.00;;
69979;SDS011;57318;56.232;43.944;2023-02-28T12:00:00;7.55;;;3.67;;
69979;SDS011;57318;56.232;43.944;2023-02-28T12:02:40;6.78;;;3.30;;
69979;SDS011;57318;56.232;43.944;2023-02-28T12:05:42;5.43;;;3.00;;
69979;SDS011;57318;56.232;43.944;2023-02-28T12:14:17;6.72;;;3.60;;
69979;SDS011;57318;56.232;43.944;2023-02-28T12:27:48;8.20;;;3.67;;
69979;SDS011;57318;56.232;43.944;2023-02-28T12:30:22;7.47;;;3.70;;
69979;SDS011;57318;56.232;43.944;2023-02-28T12:32:53;6.15;;;3.53;;
69979;SDS011;57318;56.232;43.944;2023-02-28T12:35:28;6.53;;;3.53;;
69979;SDS011;57318;56.232;43.944;2023-02-28T12:38:09;6.47;;;3.40;;
69979;SDS011;57318;56.232;43.944;2023-02-28T12:40:47;9.95;;;3.25;;
69979;SDS011;57318;56.232;43.944;2023-02-28T12:43:36;6.18;;;3.72;;
69979;SDS011;57318;56.232;43.944;2023-02-28T12:46:10;7.68;;;3.60;;
69979;SDS011;57318;56.232;43.944;2023-02-28T12:48:41;6.53;;;3.20;;
69979;SDS011;57318;56.232;43.944;2023-02-28T12:51:11;8.27;;;3.70;;
69979;SDS011;57318;56.232;43.944;2023-02-28T12:59:40;7.25;;;3.63;;
69979;SDS011;57318;56.232;43.944;2023-02-28T13:08:09;7.90;;;3.75;;
69979;SDS011;57318;56.232;43.944;2023-02-28T13:10:45;7.60;;;2.85;;
69979;SDS011;57318;56.232;43.944;2023-02-28T13:13:18;4.82;;;2.60;;
69979;SDS011;57318;56.232;43.944;2023-02-28T13:18:36;5.10;;;2.70;;
69979;SDS011;57318;56.232;43.944;2023-02-28T13:21:03;6.57;;;3.28;;
69979;SDS011;57318;56.232;43.944;2023-02-28T13:34:30;5.70;;;2.83;;
69979;SDS011;57318;56.232;43.944;2023-02-28T13:37:42;5.85;;;3.08;;
69979;SDS011;57318;56.232;43.944;2023-02-28T13:39:45;6.18;;;3.25;;
69979;SDS011;57318;56.232;43.944;2023-02-28T13:42:48;5.18;;;3.10;;
69979;SDS011;57318;56.232;43.944;2023-02-28T13:50:36;7.38;;;3.60;;
69979;SDS011;57318;56.232;43.944;2023-02-28T13:55:57;6.60;;;3.33;;
69979;SDS011;57318;56.232;43.944;2023-02-28T13:59:34;6.57;;;3.80;;
69979;SDS011;57318;56.232;43.944;2023-02-28T14:01:55;7.63;;;4.03;;
69979;SDS011;57318;56.232;43.944;2023-02-28T14:04:48;6.30;;;3.53;;
69979;SDS011;57318;56.232;43.944;2023-02-28T14:07:26;5.55;;;3.15;;
69979;SDS011;57318;56.232;43.944;2023-02-28T14:09:59;7.00;;;2.97;;
69979;SDS011;57318;56.232;43.944;2023-02-28T14:18:16;9.40;;;3.80;;
69979;SDS011;57318;56.232;43.944;2023-02-28T14:20:48;5.50;;;2.83;;
69979;SDS011;57318;56.232;43.944;2023-02-28T14:23:24;7.75;;;3.63;;
69979;SDS011;57318;56.232;43.944;2023-02-28T14:26:34;9.13;;;3.80;;
69979;SDS011;57318;56.232;43.944;2023-02-28T14:32:01;10.40;;;3.97;;
69979;SDS011;57318;56.232;43.944;2023-02-28T14:34:51;7.35;;;3.78;;
69979;SDS011;57318;56.232;43.944;2023-02-28T14:39:55;7.53;;;3.63;;
69979;SDS011;57318;56.232;43.944;2023-02-28T14:42:30;10.60;;;4.22;;
69979;SDS011;57318;56.232;43.944;2023-02-28T14:45:00;8.90;;;4.43;;
69979;SDS011;57318;56.232;43.944;2023-02-28T14:47:32;8.27;;;4.05;;
69979;SDS011;57318;56.232;43.944;2023-02-28T14:50:00;6.78;;;3.53;;
69979;SDS011;57318;56.232;43.944;2023-02-28T14:52:30;8.18;;;4.32;;
69979;SDS011;57318;56.232;43.944;2023-02-28T14:55:01;7.07;;;3.90;;
69979;SDS011;57318;56.232;43.944;2023-02-28T14:57:41;6.53;;;3.63;;
69979;SDS011;57318;56.232;43.944;2023-02-28T15:02:47;9.88;;;4.07;;
69979;SDS011;57318;56.232;43.944;2023-02-28T15:07:38;9.23;;;3.70;;
69979;SDS011;57318;56.232;43.944;2023-02-28T15:10:06;7.65;;;4.00;;
69979;SDS011;57318;56.232;43.944;2023-02-28T15:12:39;7.53;;;3.85;;
69979;SDS011;57318;56.232;43.944;2023-02-28T15:15:15;8.10;;;4.00;;
69979;SDS011;57318;56.232;43.944;2023-02-28T15:17:43;8.35;;;3.35;;
69979;SDS011;57318;56.232;43.944;2023-02-28T15:20:12;11.68;;;4.75;;
69979;SDS011;57318;56.232;43.944;2023-02-28T15:22:40;10.35;;;4.75;;
69979;SDS011;57318;56.232;43.944;2023-02-28T15:25:06;8.70;;;4.07;;
69979;SDS011;57318;56.232;43.944;2023-02-28T15:27:39;12.07;;;4.82;;
69979;SDS011;57318;56.232;43.944;2023-02-28T15:30:17;7.25;;;4.10;;
69979;SDS011;57318;56.232;43.944;2023-02-28T15:33:01;8.05;;;4.35;;
69979;SDS011;57318;56.232;43.944;2023-02-28T15:35:30;8.52;;;4.10;;
69979;SDS011;57318;56.232;43.944;2023-02-28T15:40:33;9.18;;;4.50;;
69979;SDS011;57318;56.232;43.944;2023-02-28T15:43:15;10.52;;;5.10;;
69979;SDS011;57318;56.232;43.944;2023-02-28T15:45:57;9.07;;;4.15;;
69979;SDS011;57318;56.232;43.944;2023-02-28T15:51:20;9.18;;;4.15;;
69979;SDS011;57318;56.232;43.944;2023-02-28T15:53:50;9.50;;;4.40;;
69979;SDS011;57318;56.232;43.944;2023-02-28T15:56:24;9.45;;;4.05;;
69979;SDS011;57318;56.232;43.944;2023-02-28T15:58:53;12.45;;;4.80;;
69979;SDS011;57318;56.232;43.944;2023-02-28T16:01:24;10.55;;;4.60;;
69979;SDS011;57318;56.232;43.944;2023-02-28T16:03:54;9.32;;;4.43;;
69979;SDS011;57318;56.232;43.944;2023-02-28T16:06:33;8.68;;;4.38;;
69979;SDS011;57318;56.232;43.944;2023-02-28T16:09:02;8.98;;;4.43;;
69979;SDS011;57318;56.232;43.944;2023-02-28T16:11:30;11.32;;;4.50;;
69979;SDS011;57318;56.232;43.944;2023-02-28T16:13:58;9.80;;;4.80;;
69979;SDS011;57318;56.232;43.944;2023-02-28T16:16:24;7.97;;;4.17;;
69979;SDS011;57318;56.232;43.944;2023-02-28T16:18:51;7.32;;;4.22;;
69979;SDS011;57318;56.232;43.944;2023-02-28T16:21:17;10.90;;;4.22;;
69979;SDS011;57318;56.232;43.944;2023-02-28T16:23:43;9.48;;;3.92;;
69979;SDS011;57318;56.232;43.944;2023-02-28T16:26:10;10.53;;;4.07;;
69979;SDS011;57318;56.232;43.944;2023-02-28T16:28:44;11.32;;;4.90;;
69979;SDS011;57318;56.232;43.944;2023-02-28T16:31:09;11.07;;;4.83;;
69979;SDS011;57318;56.232;43.944;2023-02-28T16:33:41;9.40;;;4.30;;
69979;SDS011;57318;56.232;43.944;2023-02-28T16:36:18;9.25;;;4.78;;
69979;SDS011;57318;56.232;43.944;2023-02-28T16:38:51;10.05;;;4.60;;
69979;SDS011;57318;56.232;43.944;2023-02-28T16:41:18;9.30;;;4.77;;
69979;SDS011;57318;56.232;43.944;2023-02-28T16:43:46;10.45;;;4.75;;
69979;SDS011;57318;56.232;43.944;2023-02-28T16:46:13;10.23;;;4.63;;
69979;SDS011;57318;56.232;43.944;2023-02-28T16:48:39;11.15;;;5.25;;
69979;SDS011;57318;56.232;43.944;2023-02-28T16:51:08;11.30;;;5.25;;
69979;SDS011;57318;56.232;43.944;2023-02-28T16:53:37;9.95;;;4.65;;
69979;SDS011;57318;56.232;43.944;2023-02-28T16:56:02;10.57;;;4.37;;
69979;SDS011;57318;56.232;43.944;2023-02-28T17:00:54;8.45;;;3.90;;
69979;SDS011;57318;56.232;43.944;2023-02-28T17:03:22;14.70;;;5.57;;
69979;SDS011;57318;56.232;43.944;2023-02-28T17:05:49;10.45;;;5.30;;
69979;SDS011;57318;56.232;43.944;2023-02-28T17:08:15;11.33;;;5.30;;
69979;SDS011;57318;56.232;43.944;2023-02-28T17:10:41;11.90;;;6.07;;
69979;SDS011;57318;56.232;43.944;2023-02-28T17:13:07;11.25;;;5.15;;
69979;SDS011;57318;56.232;43.944;2023-02-28T17:15:33;8.93;;;4.75;;
69979;SDS011;57318;56.232;43.944;2023-02-28T17:17:59;10.32;;;5.32;;
69979;SDS011;57318;56.232;43.944;2023-02-28T17:20:25;11.70;;;5.03;;
69979;SDS011;57318;56.232;43.944;2023-02-28T17:22:52;10.98;;;5.68;;
69979;SDS011;57318;56.232;43.944;2023-02-28T17:25:18;10.15;;;5.05;;
69979;SDS011;57318;56.232;43.944;2023-02-28T17:27:45;15.02;;;5.43;;
69979;SDS011;57318;56.232;43.944;2023-02-28T17:32:44;10.40;;;5.45;;
69979;SDS011;57318;56.232;43.944;2023-02-28T17:35:10;11.50;;;5.83;;
69979;SDS011;57318;56.232;43.944;2023-02-28T17:37:35;12.00;;;6.43;;
69979;SDS011;57318;56.232;43.944;2023-02-28T17:40:01;11.40;;;5.72;;
69979;SDS011;57318;56.232;43.944;2023-02-28T17:42:29;14.35;;;5.90;;